This is the latest recevied weather packets stored in our database for station/object KQ7A. If no packets are shown the sender has not sent any weather packets the latest 10 day(s).
| Time | Temp. | Humidity | Pressure | Rain* | Wind** | Luminosity | Snow |
|---|---|---|---|---|---|---|---|
| 1788588859 | 10° C | 66% | 1017.3 hPa | 0 mm | - | 0 W/m² | - |
| 1788588559 | 10.56° C | 63% | 1017.1 hPa | 0 mm | - | 0 W/m² | - |
| 1788588255 | 10° C | 63% | 1017.1 hPa | 0 mm | - | 0 W/m² | - |
| 1788587954 | 9.44° C | 66% | 1017 hPa | 0 mm | - | 0 W/m² | - |
| 1788587650 | 10° C | 63% | 1017.3 hPa | 0 mm | - | 0 W/m² | - |
| 1788587349 | 10° C | 65% | 1016.9 hPa | 0 mm | - | 0 W/m² | - |
| 1788587045 | 10° C | 64% | 1016.9 hPa | 0 mm | - | 0 W/m² | - |
| 1788586744 | 10.56° C | 64% | 1016.8 hPa | 0 mm | - | 0 W/m² | - |
| 1788586439 | 10.56° C | 64% | 1016.6 hPa | 0 mm | - | 0 W/m² | - |
| 1788586135 | 10° C | 63% | 1016.9 hPa | 0 mm | - | 0 W/m² | - |
| 1788585834 | 10.56° C | 64% | 1016.6 hPa | 0 mm | - | 0 W/m² | - |
| 1788585534 | 11.11° C | 62% | 1016.4 hPa | 0 mm | - | 0 W/m² | - |
| 1788585230 | 10° C | 64% | 1016.6 hPa | 0 mm | - | 0 W/m² | - |
| 1788584927 | 10.56° C | 63% | 1016.4 hPa | 0 mm | - | 0 W/m² | - |
| 1788584623 | 10.56° C | 62% | 1016.7 hPa | 0 mm | - | 0 W/m² | - |
| 1788584323 | 10° C | 64% | 1016.4 hPa | 0 mm | - | 0 W/m² | - |
| 1788584018 | 11.11° C | 61% | 1016.3 hPa | 0 mm | - | 0 W/m² | - |
| 1788583713 | 10° C | 62% | 1016.3 hPa | 0 mm | - | 0 W/m² | - |
| 1788583408 | 10.56° C | 63% | 1016 hPa | 0 mm | - | 0 W/m² | - |
| 1788583107 | 11.11° C | 60% | 1016.1 hPa | 0 mm | - | 0 W/m² | - |
| 1788582801 | 11.11° C | 61% | 1016.2 hPa | 0 mm | - | 0 W/m² | - |
| 1788582497 | 10.56° C | 59% | 1016.1 hPa | 0 mm | - | 0 W/m² | - |
| 1788582196 | 10.56° C | 61% | 1016.2 hPa | 0 mm | - | 0 W/m² | - |
| 1788581886 | 11.11° C | 61% | 1016.1 hPa | 0 mm | - | 0 W/m² | - |
| 1788581582 | 11.11° C | 60% | 1015.9 hPa | 0 mm | - | 0 W/m² | - |
* Rain latest hour (hover to see other rain measurements)
** Current wind speed in m/s (hover to see current wind gust speed)